sensor_id;sensor_type;location;lat;lon;timestamp;temperature;humidity
13482;DHT22;6813;60.352;15.746;2024-02-21T00:02:22;0.00;99.90
13482;DHT22;6813;60.352;15.746;2024-02-21T00:04:47;0.00;99.90
13482;DHT22;6813;60.352;15.746;2024-02-21T00:07:13;0.00;99.90
13482;DHT22;6813;60.352;15.746;2024-02-21T00:09:39;0.10;99.90
13482;DHT22;6813;60.352;15.746;2024-02-21T00:12:04;0.00;99.90
13482;DHT22;6813;60.352;15.746;2024-02-21T00:14:30;0.00;99.90
13482;DHT22;6813;60.352;15.746;2024-02-21T00:16:56;0.10;99.90
13482;DHT22;6813;60.352;15.746;2024-02-21T00:19:22;0.10;99.90
13482;DHT22;6813;60.352;15.746;2024-02-21T00:21:47;0.10;99.90
13482;DHT22;6813;60.352;15.746;2024-02-21T00:24:13;0.10;99.90
13482;DHT22;6813;60.352;15.746;2024-02-21T00:26:39;0.20;99.90
13482;DHT22;6813;60.352;15.746;2024-02-21T00:29:04;0.20;99.90
13482;DHT22;6813;60.352;15.746;2024-02-21T00:31:30;0.20;99.90
13482;DHT22;6813;60.352;15.746;2024-02-21T00:33:56;0.30;99.90
13482;DHT22;6813;60.352;15.746;2024-02-21T00:36:22;0.20;99.90
13482;DHT22;6813;60.352;15.746;2024-02-21T00:38:47;0.30;99.90
13482;DHT22;6813;60.352;15.746;2024-02-21T00:41:13;0.30;99.90
13482;DHT22;6813;60.352;15.746;2024-02-21T00:43:39;0.30;99.90
13482;DHT22;6813;60.352;15.746;2024-02-21T00:46:06;0.30;99.90
13482;DHT22;6813;60.352;15.746;2024-02-21T00:48:31;0.40;99.90
13482;DHT22;6813;60.352;15.746;2024-02-21T00:50:57;0.40;99.90
13482;DHT22;6813;60.352;15.746;2024-02-21T00:53:23;0.40;99.90
13482;DHT22;6813;60.352;15.746;2024-02-21T00:55:49;0.50;99.90
13482;DHT22;6813;60.352;15.746;2024-02-21T00:58:15;0.50;99.90
13482;DHT22;6813;60.352;15.746;2024-02-21T01:00:40;0.50;99.90
13482;DHT22;6813;60.352;15.746;2024-02-21T01:03:06;0.50;99.90
13482;DHT22;6813;60.352;15.746;2024-02-21T01:05:32;0.50;99.90
13482;DHT22;6813;60.352;15.746;2024-02-21T01:07:57;0.50;99.90
13482;DHT22;6813;60.352;15.746;2024-02-21T01:10:23;0.50;99.90
13482;DHT22;6813;60.352;15.746;2024-02-21T01:12:48;0.50;99.90
13482;DHT22;6813;60.352;15.746;2024-02-21T01:15:14;0.50;99.90
13482;DHT22;6813;60.352;15.746;2024-02-21T01:17:40;0.60;99.90
13482;DHT22;6813;60.352;15.746;2024-02-21T01:20:08;0.60;99.90
13482;DHT22;6813;60.352;15.746;2024-02-21T01:22:34;0.60;99.90
13482;DHT22;6813;60.352;15.746;2024-02-21T01:25:00;0.60;99.90
13482;DHT22;6813;60.352;15.746;2024-02-21T01:27:25;0.60;99.90
13482;DHT22;6813;60.352;15.746;2024-02-21T01:29:51;0.60;99.90
13482;DHT22;6813;60.352;15.746;2024-02-21T01:32:17;0.60;99.90
13482;DHT22;6813;60.352;15.746;2024-02-21T01:34:42;0.60;99.90
13482;DHT22;6813;60.352;15.746;2024-02-21T01:37:08;0.70;99.90
13482;DHT22;6813;60.352;15.746;2024-02-21T01:39:34;0.70;99.90
13482;DHT22;6813;60.352;15.746;2024-02-21T01:42:00;0.70;99.90
13482;DHT22;6813;60.352;15.746;2024-02-21T01:44:26;0.70;99.90
13482;DHT22;6813;60.352;15.746;2024-02-21T01:46:52;0.70;99.90
13482;DHT22;6813;60.352;15.746;2024-02-21T01:49:19;0.70;99.90
13482;DHT22;6813;60.352;15.746;2024-02-21T01:51:46;0.80;99.90
13482;DHT22;6813;60.352;15.746;2024-02-21T01:54:13;0.80;99.90
13482;DHT22;6813;60.352;15.746;2024-02-21T01:56:40;0.80;99.90
13482;DHT22;6813;60.352;15.746;2024-02-21T01:59:06;0.80;99.90
13482;DHT22;6813;60.352;15.746;2024-02-21T02:01:32;0.80;99.90
13482;DHT22;6813;60.352;15.746;2024-02-21T02:03:59;0.90;99.90
13482;DHT22;6813;60.352;15.746;2024-02-21T02:06:25;0.90;99.90
13482;DHT22;6813;60.352;15.746;2024-02-21T02:08:50;0.90;99.90
13482;DHT22;6813;60.352;15.746;2024-02-21T02:11:17;0.90;99.90
13482;DHT22;6813;60.352;15.746;2024-02-21T02:13:42;1.00;99.90
13482;DHT22;6813;60.352;15.746;2024-02-21T02:16:08;1.00;99.90
13482;DHT22;6813;60.352;15.746;2024-02-21T02:18:34;1.00;99.90
13482;DHT22;6813;60.352;15.746;2024-02-21T02:21:00;1.00;99.90
13482;DHT22;6813;60.352;15.746;2024-02-21T02:25:51;1.10;99.90
13482;DHT22;6813;60.352;15.746;2024-02-21T02:28:18;1.10;99.90
13482;DHT22;6813;60.352;15.746;2024-02-21T02:30:44;1.10;99.90
13482;DHT22;6813;60.352;15.746;2024-02-21T02:33:10;1.20;99.90
13482;DHT22;6813;60.352;15.746;2024-02-21T02:35:35;1.10;99.90
13482;DHT22;6813;60.352;15.746;2024-02-21T02:38:02;1.10;99.90
13482;DHT22;6813;60.352;15.746;2024-02-21T02:40:28;1.10;99.90
13482;DHT22;6813;60.352;15.746;2024-02-21T02:42:54;1.10;99.90
13482;DHT22;6813;60.352;15.746;2024-02-21T02:45:24;1.20;99.90
13482;DHT22;6813;60.352;15.746;2024-02-21T02:47:52;1.20;99.90
13482;DHT22;6813;60.352;15.746;2024-02-21T02:50:17;1.10;99.90
13482;DHT22;6813;60.352;15.746;2024-02-21T02:52:43;1.10;99.90
13482;DHT22;6813;60.352;15.746;2024-02-21T02:55:09;1.10;99.90
13482;DHT22;6813;60.352;15.746;2024-02-21T02:57:35;1.10;99.90
13482;DHT22;6813;60.352;15.746;2024-02-21T03:00:00;1.10;99.90
13482;DHT22;6813;60.352;15.746;2024-02-21T03:02:26;1.10;99.90
13482;DHT22;6813;60.352;15.746;2024-02-21T03:04:52;1.20;99.90
13482;DHT22;6813;60.352;15.746;2024-02-21T03:07:19;1.10;99.90
13482;DHT22;6813;60.352;15.746;2024-02-21T03:09:45;1.10;99.90
13482;DHT22;6813;60.352;15.746;2024-02-21T03:12:11;1.20;99.90
13482;DHT22;6813;60.352;15.746;2024-02-21T03:14:36;1.20;99.90
13482;DHT22;6813;60.352;15.746;2024-02-21T03:17:03;1.20;99.90
13482;DHT22;6813;60.352;15.746;2024-02-21T03:19:30;1.20;99.90
13482;DHT22;6813;60.352;15.746;2024-02-21T03:21:55;1.30;99.90
13482;DHT22;6813;60.352;15.746;2024-02-21T03:24:21;1.30;99.90
13482;DHT22;6813;60.352;15.746;2024-02-21T03:26:47;1.30;99.90
13482;DHT22;6813;60.352;15.746;2024-02-21T03:29:15;1.40;99.90
13482;DHT22;6813;60.352;15.746;2024-02-21T03:31:41;1.40;99.90
13482;DHT22;6813;60.352;15.746;2024-02-21T03:34:07;1.50;99.90
13482;DHT22;6813;60.352;15.746;2024-02-21T03:36:33;1.60;99.90
13482;DHT22;6813;60.352;15.746;2024-02-21T03:38:59;1.50;99.90
13482;DHT22;6813;60.352;15.746;2024-02-21T03:41:25;1.50;99.90
13482;DHT22;6813;60.352;15.746;2024-02-21T03:43:51;1.60;99.90
13482;DHT22;6813;60.352;15.746;2024-02-21T03:46:17;1.60;99.90
13482;DHT22;6813;60.352;15.746;2024-02-21T03:48:43;1.50;99.90
13482;DHT22;6813;60.352;15.746;2024-02-21T03:51:08;1.60;99.90
13482;DHT22;6813;60.352;15.746;2024-02-21T03:53:34;1.50;99.90
13482;DHT22;6813;60.352;15.746;2024-02-21T03:56:03;1.50;99.90
13482;DHT22;6813;60.352;15.746;2024-02-21T03:58:33;1.50;99.90
13482;DHT22;6813;60.352;15.746;2024-02-21T04:01:02;1.70;99.90
13482;DHT22;6813;60.352;15.746;2024-02-21T04:03:28;1.70;99.90
13482;DHT22;6813;60.352;15.746;2024-02-21T04:05:54;1.70;99.90
13482;DHT22;6813;60.352;15.746;2024-02-21T04:08:20;1.70;99.90
13482;DHT22;6813;60.352;15.746;2024-02-21T04:10:46;1.70;99.90
13482;DHT22;6813;60.352;15.746;2024-02-21T04:13:12;1.70;99.90
13482;DHT22;6813;60.352;15.746;2024-02-21T04:15:38;1.70;99.90
13482;DHT22;6813;60.352;15.746;2024-02-21T04:18:03;1.70;99.90
13482;DHT22;6813;60.352;15.746;2024-02-21T04:20:29;1.70;99.90
13482;DHT22;6813;60.352;15.746;2024-02-21T04:22:56;1.70;99.90
13482;DHT22;6813;60.352;15.746;2024-02-21T04:25:21;1.70;99.90
13482;DHT22;6813;60.352;15.746;2024-02-21T04:27:47;1.70;99.90
13482;DHT22;6813;60.352;15.746;2024-02-21T04:30:13;1.70;99.90
13482;DHT22;6813;60.352;15.746;2024-02-21T04:32:39;1.70;99.90
13482;DHT22;6813;60.352;15.746;2024-02-21T04:35:06;1.70;99.90
13482;DHT22;6813;60.352;15.746;2024-02-21T04:37:32;1.70;99.90
13482;DHT22;6813;60.352;15.746;2024-02-21T04:39:58;1.70;99.90
13482;DHT22;6813;60.352;15.746;2024-02-21T04:42:24;1.70;99.90
13482;DHT22;6813;60.352;15.746;2024-02-21T04:44:49;1.70;99.90
13482;DHT22;6813;60.352;15.746;2024-02-21T04:47:15;1.70;99.90
13482;DHT22;6813;60.352;15.746;2024-02-21T04:49:41;1.70;99.90
13482;DHT22;6813;60.352;15.746;2024-02-21T04:52:06;1.70;99.90
13482;DHT22;6813;60.352;15.746;2024-02-21T04:54:32;1.80;99.90
13482;DHT22;6813;60.352;15.746;2024-02-21T04:56:58;1.90;99.90
13482;DHT22;6813;60.352;15.746;2024-02-21T04:59:23;1.90;99.90
13482;DHT22;6813;60.352;15.746;2024-02-21T05:01:49;2.00;99.90
13482;DHT22;6813;60.352;15.746;2024-02-21T05:04:15;1.90;99.90
13482;DHT22;6813;60.352;15.746;2024-02-21T05:06:43;2.00;99.90
13482;DHT22;6813;60.352;15.746;2024-02-21T05:09:09;2.00;99.90
13482;DHT22;6813;60.352;15.746;2024-02-21T05:11:36;2.00;99.90
13482;DHT22;6813;60.352;15.746;2024-02-21T05:14:03;2.00;99.90
13482;DHT22;6813;60.352;15.746;2024-02-21T05:16:31;1.90;99.90
13482;DHT22;6813;60.352;15.746;2024-02-21T05:18:57;1.90;99.90
13482;DHT22;6813;60.352;15.746;2024-02-21T05:21:23;1.90;99.90
13482;DHT22;6813;60.352;15.746;2024-02-21T05:23:50;1.90;99.90
13482;DHT22;6813;60.352;15.746;2024-02-21T05:26:25;1.90;99.90
13482;DHT22;6813;60.352;15.746;2024-02-21T05:28:51;1.90;99.90
13482;DHT22;6813;60.352;15.746;2024-02-21T05:31:20;2.00;99.90
13482;DHT22;6813;60.352;15.746;2024-02-21T05:33:49;2.00;99.90
13482;DHT22;6813;60.352;15.746;2024-02-21T05:36:14;2.00;99.90
13482;DHT22;6813;60.352;15.746;2024-02-21T05:38:40;2.00;99.90
13482;DHT22;6813;60.352;15.746;2024-02-21T05:41:06;2.20;99.90
13482;DHT22;6813;60.352;15.746;2024-02-21T05:43:31;2.20;99.90
13482;DHT22;6813;60.352;15.746;2024-02-21T05:45:57;2.30;99.90
13482;DHT22;6813;60.352;15.746;2024-02-21T05:48:23;2.20;99.90
13482;DHT22;6813;60.352;15.746;2024-02-21T05:50:49;2.20;99.90
13482;DHT22;6813;60.352;15.746;2024-02-21T05:53:15;2.20;99.90
13482;DHT22;6813;60.352;15.746;2024-02-21T05:55:41;2.20;99.90
13482;DHT22;6813;60.352;15.746;2024-02-21T05:58:07;2.20;99.90
13482;DHT22;6813;60.352;15.746;2024-02-21T06:00:36;2.30;99.90
13482;DHT22;6813;60.352;15.746;2024-02-21T06:03:02;2.30;99.90
13482;DHT22;6813;60.352;15.746;2024-02-21T06:05:28;2.30;99.90
13482;DHT22;6813;60.352;15.746;2024-02-21T06:07:53;2.30;99.90
13482;DHT22;6813;60.352;15.746;2024-02-21T06:10:19;2.30;99.90
13482;DHT22;6813;60.352;15.746;2024-02-21T06:12:45;2.30;99.90
13482;DHT22;6813;60.352;15.746;2024-02-21T06:15:10;2.40;99.90
13482;DHT22;6813;60.352;15.746;2024-02-21T06:17:36;2.50;99.90
13482;DHT22;6813;60.352;15.746;2024-02-21T06:20:03;2.60;99.90
13482;DHT22;6813;60.352;15.746;2024-02-21T06:22:30;2.70;99.90
13482;DHT22;6813;60.352;15.746;2024-02-21T06:24:55;2.90;99.90
13482;DHT22;6813;60.352;15.746;2024-02-21T06:27:21;2.90;99.90
13482;DHT22;6813;60.352;15.746;2024-02-21T06:29:47;2.90;99.90
13482;DHT22;6813;60.352;15.746;2024-02-21T06:32:12;2.80;99.90
13482;DHT22;6813;60.352;15.746;2024-02-21T06:34:38;2.90;99.90
13482;DHT22;6813;60.352;15.746;2024-02-21T06:37:04;2.80;99.90
13482;DHT22;6813;60.352;15.746;2024-02-21T06:39:29;2.90;99.90
13482;DHT22;6813;60.352;15.746;2024-02-21T06:41:55;2.90;99.90
13482;DHT22;6813;60.352;15.746;2024-02-21T06:44:22;2.90;99.90
13482;DHT22;6813;60.352;15.746;2024-02-21T06:46:47;2.90;99.90
13482;DHT22;6813;60.352;15.746;2024-02-21T06:49:13;3.10;99.90
13482;DHT22;6813;60.352;15.746;2024-02-21T06:51:44;3.20;99.90
13482;DHT22;6813;60.352;15.746;2024-02-21T06:54:10;3.10;99.90
13482;DHT22;6813;60.352;15.746;2024-02-21T06:56:36;3.00;99.90
13482;DHT22;6813;60.352;15.746;2024-02-21T06:59:03;2.90;99.90
13482;DHT22;6813;60.352;15.746;2024-02-21T07:01:29;2.80;99.90
13482;DHT22;6813;60.352;15.746;2024-02-21T07:03:56;2.70;99.90
13482;DHT22;6813;60.352;15.746;2024-02-21T07:06:22;2.70;99.90
13482;DHT22;6813;60.352;15.746;2024-02-21T07:08:48;2.60;99.90
13482;DHT22;6813;60.352;15.746;2024-02-21T07:11:14;2.50;99.90
13482;DHT22;6813;60.352;15.746;2024-02-21T07:13:40;2.50;99.90
13482;DHT22;6813;60.352;15.746;2024-02-21T07:16:07;2.50;99.90
13482;DHT22;6813;60.352;15.746;2024-02-21T07:18:33;2.50;99.90
13482;DHT22;6813;60.352;15.746;2024-02-21T07:20:59;2.50;99.90
13482;DHT22;6813;60.352;15.746;2024-02-21T07:23:24;2.70;99.90
13482;DHT22;6813;60.352;15.746;2024-02-21T07:25:50;2.70;99.90
13482;DHT22;6813;60.352;15.746;2024-02-21T07:28:16;2.80;99.90
13482;DHT22;6813;60.352;15.746;2024-02-21T07:30:42;2.90;99.90
13482;DHT22;6813;60.352;15.746;2024-02-21T07:33:08;3.10;99.90
13482;DHT22;6813;60.352;15.746;2024-02-21T07:35:34;3.20;99.90
13482;DHT22;6813;60.352;15.746;2024-02-21T07:38:03;3.40;99.90
13482;DHT22;6813;60.352;15.746;2024-02-21T07:40:29;3.50;99.90
13482;DHT22;6813;60.352;15.746;2024-02-21T07:42:55;3.70;99.90
13482;DHT22;6813;60.352;15.746;2024-02-21T07:45:21;3.70;99.90
13482;DHT22;6813;60.352;15.746;2024-02-21T07:47:49;3.80;99.90
13482;DHT22;6813;60.352;15.746;2024-02-21T07:50:15;3.90;99.90
13482;DHT22;6813;60.352;15.746;2024-02-21T07:52:40;4.00;99.90
13482;DHT22;6813;60.352;15.746;2024-02-21T07:55:06;4.10;99.90
13482;DHT22;6813;60.352;15.746;2024-02-21T07:57:32;4.20;99.90
13482;DHT22;6813;60.352;15.746;2024-02-21T07:59:58;4.20;99.90
13482;DHT22;6813;60.352;15.746;2024-02-21T08:02:24;4.30;99.90
13482;DHT22;6813;60.352;15.746;2024-02-21T08:04:49;4.40;99.90
13482;DHT22;6813;60.352;15.746;2024-02-21T08:07:15;4.40;99.90
13482;DHT22;6813;60.352;15.746;2024-02-21T08:09:41;4.50;99.90
13482;DHT22;6813;60.352;15.746;2024-02-21T08:12:06;4.50;99.90
13482;DHT22;6813;60.352;15.746;2024-02-21T08:14:32;4.50;99.90
13482;DHT22;6813;60.352;15.746;2024-02-21T08:16:58;4.50;99.90
13482;DHT22;6813;60.352;15.746;2024-02-21T08:19:25;4.60;99.90
13482;DHT22;6813;60.352;15.746;2024-02-21T08:21:51;4.60;99.90
13482;DHT22;6813;60.352;15.746;2024-02-21T08:24:16;4.60;99.90
13482;DHT22;6813;60.352;15.746;2024-02-21T08:26:43;4.60;99.90
13482;DHT22;6813;60.352;15.746;2024-02-21T08:29:11;4.70;99.90
13482;DHT22;6813;60.352;15.746;2024-02-21T08:31:37;4.70;99.90
13482;DHT22;6813;60.352;15.746;2024-02-21T08:34:03;4.70;99.90
13482;DHT22;6813;60.352;15.746;2024-02-21T08:36:33;4.80;99.90
13482;DHT22;6813;60.352;15.746;2024-02-21T08:39:00;4.90;99.90
13482;DHT22;6813;60.352;15.746;2024-02-21T08:41:26;4.80;99.90
13482;DHT22;6813;60.352;15.746;2024-02-21T08:43:53;4.70;99.90
13482;DHT22;6813;60.352;15.746;2024-02-21T08:46:22;4.60;99.90
13482;DHT22;6813;60.352;15.746;2024-02-21T08:48:50;4.50;99.90
13482;DHT22;6813;60.352;15.746;2024-02-21T08:51:17;4.50;99.90
13482;DHT22;6813;60.352;15.746;2024-02-21T08:53:43;4.50;99.90
13482;DHT22;6813;60.352;15.746;2024-02-21T08:56:09;4.60;99.90
13482;DHT22;6813;60.352;15.746;2024-02-21T08:58:39;4.60;99.90
13482;DHT22;6813;60.352;15.746;2024-02-21T09:01:06;4.70;99.90
13482;DHT22;6813;60.352;15.746;2024-02-21T09:03:39;4.80;99.90
13482;DHT22;6813;60.352;15.746;2024-02-21T09:06:09;4.90;99.90
13482;DHT22;6813;60.352;15.746;2024-02-21T09:08:35;4.90;99.90
13482;DHT22;6813;60.352;15.746;2024-02-21T09:11:01;5.00;99.90
13482;DHT22;6813;60.352;15.746;2024-02-21T09:13:27;5.00;99.90
13482;DHT22;6813;60.352;15.746;2024-02-21T09:15:53;5.10;99.90
13482;DHT22;6813;60.352;15.746;2024-02-21T09:18:19;5.10;99.90
13482;DHT22;6813;60.352;15.746;2024-02-21T09:20:45;5.20;99.90
13482;DHT22;6813;60.352;15.746;2024-02-21T09:23:11;5.20;99.90
13482;DHT22;6813;60.352;15.746;2024-02-21T09:25:37;5.40;99.90
13482;DHT22;6813;60.352;15.746;2024-02-21T09:28:03;5.40;99.90
13482;DHT22;6813;60.352;15.746;2024-02-21T09:30:31;5.60;99.90
13482;DHT22;6813;60.352;15.746;2024-02-21T09:32:57;5.60;99.90
13482;DHT22;6813;60.352;15.746;2024-02-21T09:35:25;5.70;99.90
13482;DHT22;6813;60.352;15.746;2024-02-21T09:37:53;5.70;99.90
13482;DHT22;6813;60.352;15.746;2024-02-21T09:40:19;5.70;99.90
13482;DHT22;6813;60.352;15.746;2024-02-21T09:42:47;5.70;99.90
13482;DHT22;6813;60.352;15.746;2024-02-21T09:45:30;5.60;99.90
13482;DHT22;6813;60.352;15.746;2024-02-21T09:51:09;5.60;99.90
13482;DHT22;6813;60.352;15.746;2024-02-21T09:53:38;5.70;99.90
13482;DHT22;6813;60.352;15.746;2024-02-21T09:56:07;5.80;99.90
13482;DHT22;6813;60.352;15.746;2024-02-21T09:58:33;5.80;99.90
13482;DHT22;6813;60.352;15.746;2024-02-21T10:01:00;5.90;99.90
13482;DHT22;6813;60.352;15.746;2024-02-21T10:03:26;5.90;99.90
13482;DHT22;6813;60.352;15.746;2024-02-21T10:05:52;5.90;99.90
13482;DHT22;6813;60.352;15.746;2024-02-21T10:08:19;6.00;99.90
13482;DHT22;6813;60.352;15.746;2024-02-21T10:10:46;6.00;99.90
13482;DHT22;6813;60.352;15.746;2024-02-21T10:13:29;6.10;99.90
13482;DHT22;6813;60.352;15.746;2024-02-21T10:18:28;6.20;99.90
13482;DHT22;6813;60.352;15.746;2024-02-21T10:21:03;6.20;99.90
13482;DHT22;6813;60.352;15.746;2024-02-21T10:26:09;6.10;99.90
13482;DHT22;6813;60.352;15.746;2024-02-21T10:28:35;6.20;99.90
13482;DHT22;6813;60.352;15.746;2024-02-21T10:31:02;6.10;99.90
13482;DHT22;6813;60.352;15.746;2024-02-21T10:33:27;6.00;99.90
13482;DHT22;6813;60.352;15.746;2024-02-21T10:35:53;6.00;99.90
13482;DHT22;6813;60.352;15.746;2024-02-21T10:38:19;5.90;99.90
13482;DHT22;6813;60.352;15.746;2024-02-21T10:40:46;5.80;99.90
13482;DHT22;6813;60.352;15.746;2024-02-21T10:43:13;5.70;99.90
13482;DHT22;6813;60.352;15.746;2024-02-21T10:45:42;5.70;99.90
13482;DHT22;6813;60.352;15.746;2024-02-21T10:48:14;5.70;99.90
13482;DHT22;6813;60.352;15.746;2024-02-21T10:58:42;5.50;99.90
13482;DHT22;6813;60.352;15.746;2024-02-21T11:01:08;5.50;99.90
13482;DHT22;6813;60.352;15.746;2024-02-21T11:03:34;5.60;99.90
13482;DHT22;6813;60.352;15.746;2024-02-21T11:06:01;5.60;99.90
13482;DHT22;6813;60.352;15.746;2024-02-21T11:08:27;5.50;99.90
13482;DHT22;6813;60.352;15.746;2024-02-21T11:10:57;5.50;99.90
13482;DHT22;6813;60.352;15.746;2024-02-21T11:16:08;5.60;99.90
13482;DHT22;6813;60.352;15.746;2024-02-21T11:18:35;5.60;99.90
13482;DHT22;6813;60.352;15.746;2024-02-21T11:21:00;5.50;99.90
13482;DHT22;6813;60.352;15.746;2024-02-21T11:23:26;5.50;99.90
13482;DHT22;6813;60.352;15.746;2024-02-21T11:25:52;5.50;99.90
13482;DHT22;6813;60.352;15.746;2024-02-21T11:28:29;5.40;99.90
13482;DHT22;6813;60.352;15.746;2024-02-21T11:31:11;5.60;99.90
13482;DHT22;6813;60.352;15.746;2024-02-21T11:33:41;5.50;99.90
13482;DHT22;6813;60.352;15.746;2024-02-21T11:36:22;5.60;99.90
13482;DHT22;6813;60.352;15.746;2024-02-21T11:38:48;5.70;99.90
13482;DHT22;6813;60.352;15.746;2024-02-21T11:41:14;5.70;99.90
13482;DHT22;6813;60.352;15.746;2024-02-21T11:43:40;5.70;99.90
13482;DHT22;6813;60.352;15.746;2024-02-21T11:46:07;5.60;99.90
13482;DHT22;6813;60.352;15.746;2024-02-21T11:48:34;5.70;99.90
13482;DHT22;6813;60.352;15.746;2024-02-21T11:51:00;5.70;99.90
13482;DHT22;6813;60.352;15.746;2024-02-21T11:53:26;5.60;99.90
13482;DHT22;6813;60.352;15.746;2024-02-21T11:55:56;5.80;99.90
13482;DHT22;6813;60.352;15.746;2024-02-21T11:58:22;5.90;99.90
13482;DHT22;6813;60.352;15.746;2024-02-21T12:00:48;5.90;99.90
13482;DHT22;6813;60.352;15.746;2024-02-21T12:03:15;6.10;99.90
13482;DHT22;6813;60.352;15.746;2024-02-21T12:05:41;6.20;99.90
13482;DHT22;6813;60.352;15.746;2024-02-21T12:08:07;6.30;99.90
13482;DHT22;6813;60.352;15.746;2024-02-21T12:10:36;6.30;99.90
13482;DHT22;6813;60.352;15.746;2024-02-21T12:13:23;6.30;99.90
13482;DHT22;6813;60.352;15.746;2024-02-21T12:15:49;6.20;99.90
13482;DHT22;6813;60.352;15.746;2024-02-21T12:18:15;6.20;99.90
13482;DHT22;6813;60.352;15.746;2024-02-21T12:20:41;6.20;99.90
13482;DHT22;6813;60.352;15.746;2024-02-21T12:23:10;6.30;99.90
13482;DHT22;6813;60.352;15.746;2024-02-21T12:25:36;6.50;99.90
13482;DHT22;6813;60.352;15.746;2024-02-21T12:28:01;6.60;99.90
13482;DHT22;6813;60.352;15.746;2024-02-21T12:30:29;6.70;99.90
13482;DHT22;6813;60.352;15.746;2024-02-21T12:32:56;6.70;99.90
13482;DHT22;6813;60.352;15.746;2024-02-21T12:35:23;6.60;99.90
13482;DHT22;6813;60.352;15.746;2024-02-21T12:37:49;6.60;99.90
13482;DHT22;6813;60.352;15.746;2024-02-21T12:40:15;6.60;99.90
13482;DHT22;6813;60.352;15.746;2024-02-21T12:42:41;6.50;99.90
13482;DHT22;6813;60.352;15.746;2024-02-21T12:45:07;6.30;99.90
13482;DHT22;6813;60.352;15.746;2024-02-21T12:47:33;6.30;99.90
13482;DHT22;6813;60.352;15.746;2024-02-21T12:49:58;6.20;99.90
13482;DHT22;6813;60.352;15.746;2024-02-21T12:52:24;6.20;99.90
13482;DHT22;6813;60.352;15.746;2024-02-21T12:54:50;6.00;99.90
13482;DHT22;6813;60.352;15.746;2024-02-21T12:57:17;5.90;99.90
13482;DHT22;6813;60.352;15.746;2024-02-21T12:59:43;5.90;99.90
13482;DHT22;6813;60.352;15.746;2024-02-21T13:02:08;5.90;99.90
13482;DHT22;6813;60.352;15.746;2024-02-21T13:04:34;5.90;99.90
13482;DHT22;6813;60.352;15.746;2024-02-21T13:07:00;5.90;99.90
13482;DHT22;6813;60.352;15.746;2024-02-21T13:09:26;5.90;99.90
13482;DHT22;6813;60.352;15.746;2024-02-21T13:11:51;6.00;99.90
13482;DHT22;6813;60.352;15.746;2024-02-21T13:14:18;6.00;99.90
13482;DHT22;6813;60.352;15.746;2024-02-21T13:16:44;6.00;99.90
13482;DHT22;6813;60.352;15.746;2024-02-21T13:19:09;6.00;99.90
13482;DHT22;6813;60.352;15.746;2024-02-21T13:21:35;6.00;99.90
13482;DHT22;6813;60.352;15.746;2024-02-21T13:24:01;6.00;99.90
13482;DHT22;6813;60.352;15.746;2024-02-21T13:26:27;6.00;99.90
13482;DHT22;6813;60.352;15.746;2024-02-21T13:28:54;6.00;99.90
13482;DHT22;6813;60.352;15.746;2024-02-21T13:31:21;5.90;99.90
13482;DHT22;6813;60.352;15.746;2024-02-21T13:33:47;5.90;99.90
13482;DHT22;6813;60.352;15.746;2024-02-21T13:36:13;5.90;99.90
13482;DHT22;6813;60.352;15.746;2024-02-21T13:38:38;5.80;99.90
13482;DHT22;6813;60.352;15.746;2024-02-21T13:41:05;5.70;99.90
13482;DHT22;6813;60.352;15.746;2024-02-21T13:43:32;5.80;99.90
13482;DHT22;6813;60.352;15.746;2024-02-21T13:46:01;5.80;99.90
13482;DHT22;6813;60.352;15.746;2024-02-21T13:48:35;5.80;99.90
13482;DHT22;6813;60.352;15.746;2024-02-21T13:51:01;5.80;99.90
13482;DHT22;6813;60.352;15.746;2024-02-21T13:53:28;5.80;99.90
13482;DHT22;6813;60.352;15.746;2024-02-21T13:55:53;5.70;99.90
13482;DHT22;6813;60.352;15.746;2024-02-21T13:58:19;5.70;99.90
13482;DHT22;6813;60.352;15.746;2024-02-21T14:00:45;5.70;99.90
13482;DHT22;6813;60.352;15.746;2024-02-21T14:03:11;5.70;99.90
13482;DHT22;6813;60.352;15.746;2024-02-21T14:05:37;5.50;99.90
13482;DHT22;6813;60.352;15.746;2024-02-21T14:08:06;5.50;99.90
13482;DHT22;6813;60.352;15.746;2024-02-21T14:10:32;5.70;99.90
13482;DHT22;6813;60.352;15.746;2024-02-21T14:12:57;5.80;99.90
13482;DHT22;6813;60.352;15.746;2024-02-21T14:15:23;5.80;99.90
13482;DHT22;6813;60.352;15.746;2024-02-21T14:17:50;5.80;99.90
13482;DHT22;6813;60.352;15.746;2024-02-21T14:20:16;5.80;99.90
13482;DHT22;6813;60.352;15.746;2024-02-21T14:22:41;5.80;99.90
13482;DHT22;6813;60.352;15.746;2024-02-21T14:25:08;5.90;99.90
13482;DHT22;6813;60.352;15.746;2024-02-21T14:27:33;5.80;99.90
13482;DHT22;6813;60.352;15.746;2024-02-21T14:30:02;5.90;99.90
13482;DHT22;6813;60.352;15.746;2024-02-21T14:32:28;6.00;99.90
13482;DHT22;6813;60.352;15.746;2024-02-21T14:34:53;6.00;99.90
13482;DHT22;6813;60.352;15.746;2024-02-21T14:37:19;6.00;99.90
13482;DHT22;6813;60.352;15.746;2024-02-21T14:39:47;6.00;99.90
13482;DHT22;6813;60.352;15.746;2024-02-21T14:42:12;6.00;99.90
13482;DHT22;6813;60.352;15.746;2024-02-21T14:44:38;6.00;99.90
13482;DHT22;6813;60.352;15.746;2024-02-21T14:47:04;6.00;99.90
13482;DHT22;6813;60.352;15.746;2024-02-21T14:49:30;5.90;99.90
13482;DHT22;6813;60.352;15.746;2024-02-21T14:51:56;5.90;99.90
13482;DHT22;6813;60.352;15.746;2024-02-21T14:54:22;5.90;99.90
13482;DHT22;6813;60.352;15.746;2024-02-21T14:56:49;5.80;99.90
13482;DHT22;6813;60.352;15.746;2024-02-21T14:59:15;5.70;99.90
13482;DHT22;6813;60.352;15.746;2024-02-21T15:01:42;5.40;99.90
13482;DHT22;6813;60.352;15.746;2024-02-21T15:04:08;5.40;99.90
13482;DHT22;6813;60.352;15.746;2024-02-21T15:06:34;5.40;99.90
13482;DHT22;6813;60.352;15.746;2024-02-21T15:09:02;5.40;99.90
13482;DHT22;6813;60.352;15.746;2024-02-21T15:11:28;5.50;99.90
13482;DHT22;6813;60.352;15.746;2024-02-21T15:13:54;5.50;99.90
13482;DHT22;6813;60.352;15.746;2024-02-21T15:16:20;5.50;99.90
13482;DHT22;6813;60.352;15.746;2024-02-21T15:18:45;5.40;99.90
13482;DHT22;6813;60.352;15.746;2024-02-21T15:21:12;5.40;99.90
13482;DHT22;6813;60.352;15.746;2024-02-21T15:23:40;5.30;99.90
13482;DHT22;6813;60.352;15.746;2024-02-21T15:26:07;5.20;99.90
13482;DHT22;6813;60.352;15.746;2024-02-21T15:28:33;5.30;99.90
13482;DHT22;6813;60.352;15.746;2024-02-21T15:30:58;5.40;99.90
13482;DHT22;6813;60.352;15.746;2024-02-21T15:33:24;5.50;99.90
13482;DHT22;6813;60.352;15.746;2024-02-21T15:35:51;5.60;99.90
13482;DHT22;6813;60.352;15.746;2024-02-21T15:38:17;5.60;99.90
13482;DHT22;6813;60.352;15.746;2024-02-21T15:40:42;5.60;99.90
13482;DHT22;6813;60.352;15.746;2024-02-21T15:43:08;5.70;99.90
13482;DHT22;6813;60.352;15.746;2024-02-21T15:45:34;5.70;99.90
13482;DHT22;6813;60.352;15.746;2024-02-21T15:48:00;5.60;99.90
13482;DHT22;6813;60.352;15.746;2024-02-21T15:50:26;5.50;99.90
13482;DHT22;6813;60.352;15.746;2024-02-21T15:52:54;5.50;99.90
13482;DHT22;6813;60.352;15.746;2024-02-21T15:55:21;5.50;99.90
13482;DHT22;6813;60.352;15.746;2024-02-21T15:57:47;5.50;99.90
13482;DHT22;6813;60.352;15.746;2024-02-21T16:00:15;5.40;99.90
13482;DHT22;6813;60.352;15.746;2024-02-21T16:02:40;5.50;99.90